Time;durP1;ratioP1;P1;durP2;ratioP2;P2;SDS_P1;SDS_P2;PMS_P1;PMS_P2;Temp;Humidity;BMP_temperature;BMP_pressure;BME280_temperature;BME280_humidity;BME280_pressure;Samples;Min_cycle;Max_cycle;Signal;HPM_P1;HPM_P2
2021/04/11 00:01:21;;;;;;;7.33;6.20;;;3.00;99.90;;;;;;4370115;32;20228;-65
2021/04/11 00:03:48;;;;;;;9.13;7.10;;;3.00;99.90;;;;;;4383019;32;20180;-65
2021/04/11 00:06:15;;;;;;;6.87;5.70;;;3.10;99.90;;;;;;4373226;32;20576;-66
2021/04/11 00:08:41;;;;;;;7.03;5.80;;;3.10;99.90;;;;;;4365706;32;20183;-64
2021/04/11 00:11:08;;;;;;;7.93;6.43;;;3.10;99.90;;;;;;4370470;32;20597;-65
2021/04/11 00:13:36;;;;;;;8.67;6.60;;;3.10;99.90;;;;;;4369332;32;20171;-63
2021/04/11 00:16:04;;;;;;;9.03;6.97;;;3.10;99.90;;;;;;4368951;32;20242;-61
2021/04/11 00:18:30;;;;;;;9.37;6.63;;;3.10;99.90;;;;;;4366023;32;20184;-64
2021/04/11 00:20:59;;;;;;;7.33;5.97;;;3.10;99.90;;;;;;4376557;32;20180;-64
2021/04/11 00:23:30;;;;;;;8.57;6.57;;;3.10;99.90;;;;;;4369441;32;20157;-63
2021/04/11 00:25:57;;;;;;;7.43;6.50;;;3.10;99.90;;;;;;4372905;32;20156;-62
2021/04/11 00:28:23;;;;;;;8.57;6.50;;;3.10;99.90;;;;;;4372937;32;20653;-64
2021/04/11 00:30:50;;;;;;;8.93;6.47;;;3.10;99.90;;;;;;4365773;32;20169;-63
2021/04/11 00:33:30;;;;;;;10.27;7.30;;;3.00;99.90;;;;;;4375329;32;20183;-64
2021/04/11 00:35:58;;;;;;;10.03;7.20;;;3.10;99.90;;;;;;4362160;33;20157;-62
2021/04/11 00:38:26;;;;;;;10.80;6.87;;;3.20;99.90;;;;;;4364400;32;20207;-62
2021/04/11 00:40:56;;;;;;;7.47;6.17;;;3.10;99.90;;;;;;4362123;32;20192;-62
2021/04/11 00:43:24;;;;;;;8.57;6.70;;;3.10;99.90;;;;;;4369961;32;20599;-63
2021/04/11 00:45:56;;;;;;;9.20;6.77;;;3.20;99.90;;;;;;4366346;32;20203;-62
2021/04/11 00:48:25;;;;;;;7.40;6.17;;;3.20;99.90;;;;;;4362750;32;20232;-62
2021/04/11 00:50:54;;;;;;;8.07;6.37;;;3.20;99.90;;;;;;4361678;32;20172;-64
2021/04/11 00:53:23;;;;;;;6.97;5.93;;;3.20;99.90;;;;;;4363033;32;20175;-64
2021/04/11 00:55:50;;;;;;;7.70;5.90;;;3.20;99.90;;;;;;4375640;32;20261;-61
2021/04/11 00:58:25;;;;;;;5.53;5.00;;;3.20;99.90;;;;;;4374447;32;20216;-62
2021/04/11 01:00:54;;;;;;;6.13;5.00;;;3.20;99.90;;;;;;4367585;32;20157;-62
2021/04/11 01:03:24;;;;;;;5.70;4.97;;;3.20;99.90;;;;;;4374858;32;20222;-62
2021/04/11 01:05:51;;;;;;;7.17;5.07;;;3.20;99.90;;;;;;4371738;32;20171;-63
2021/04/11 01:08:21;;;;;;;5.33;4.43;;;3.20;99.90;;;;;;4374412;32;20164;-63
2021/04/11 01:10:55;;;;;;;4.77;4.00;;;3.20;99.90;;;;;;4366778;32;20180;-63
2021/04/11 01:13:22;;;;;;;5.17;4.03;;;3.20;99.90;;;;;;4361718;32;20179;-62
2021/04/11 01:15:49;;;;;;;6.20;4.53;;;3.20;99.90;;;;;;4385677;32;20539;-63
2021/04/11 01:18:15;;;;;;;7.63;5.13;;;3.30;99.90;;;;;;4375441;32;20164;-61
2021/04/11 01:20:44;;;;;;;5.77;4.40;;;3.30;99.90;;;;;;4370902;32;20187;-62
2021/04/11 01:23:22;;;;;;;6.47;4.10;;;3.30;99.90;;;;;;4363197;32;20655;-63
2021/04/11 01:25:51;;;;;;;5.93;4.33;;;3.40;99.90;;;;;;4372626;32;20148;-64
2021/04/11 01:28:21;;;;;;;5.50;4.40;;;3.30;99.90;;;;;;4370983;32;20208;-63
2021/04/11 01:30:48;;;;;;;4.23;3.60;;;3.40;99.90;;;;;;4369967;32;20180;-63
2021/04/11 01:33:17;;;;;;;4.77;3.93;;;3.40;99.90;;;;;;4361430;32;20259;-62
2021/04/11 01:35:44;;;;;;;4.93;3.60;;;3.40;99.90;;;;;;4368761;32;20176;-63
2021/04/11 01:38:12;;;;;;;4.67;3.57;;;3.40;99.90;;;;;;4376068;32;20225;-62
2021/04/11 01:40:42;;;;;;;4.17;3.67;;;3.50;99.90;;;;;;4358309;32;20715;-64
2021/04/11 01:43:10;;;;;;;5.00;3.63;;;3.50;99.90;;;;;;4361475;33;20156;-64
2021/04/11 01:45:39;;;;;;;4.60;3.37;;;3.60;99.90;;;;;;4365557;32;20160;-63
2021/04/11 01:48:07;;;;;;;6.63;4.10;;;3.50;99.90;;;;;;4369374;32;20541;-61
2021/04/11 01:50:34;;;;;;;3.97;3.43;;;3.50;99.90;;;;;;4367805;32;20180;-62
2021/04/11 01:53:01;;;;;;;3.70;3.13;;;3.50;99.90;;;;;;4361644;32;20176;-62
2021/04/11 01:55:29;;;;;;;3.20;2.90;;;3.60;99.90;;;;;;4366024;32;20187;-61
2021/04/11 01:58:01;;;;;;;4.23;3.10;;;3.60;99.90;;;;;;4375074;32;20208;-62
2021/04/11 02:00:33;;;;;;;4.40;3.30;;;3.60;99.90;;;;;;4364948;32;20656;-62
2021/04/11 02:03:04;;;;;;;3.40;3.00;;;3.60;99.90;;;;;;4374943;32;20317;-62
2021/04/11 02:05:31;;;;;;;5.70;3.53;;;3.60;99.90;;;;;;4370742;32;20600;-64
2021/04/11 02:07:58;;;;;;;5.10;2.83;;;3.60;99.90;;;;;;4370460;32;20173;-62
2021/04/11 02:10:29;;;;;;;4.33;2.90;;;3.60;99.90;;;;;;4376360;32;20512;-62
2021/04/11 02:12:56;;;;;;;3.57;2.47;;;3.60;99.90;;;;;;4372108;32;20172;-60
2021/04/11 02:15:25;;;;;;;2.60;2.00;;;3.60;99.90;;;;;;4364302;32;20279;-64
2021/04/11 02:17:54;;;;;;;2.40;1.97;;;3.60;99.90;;;;;;4375629;32;20569;-61
2021/04/11 02:20:23;;;;;;;1.97;1.80;;;3.60;99.90;;;;;;4365616;32;20229;-64
2021/04/11 02:22:50;;;;;;;3.07;2.00;;;3.50;99.90;;;;;;4368593;32;20183;-60
2021/04/11 02:25:20;;;;;;;2.10;1.90;;;3.50;99.90;;;;;;4366838;32;20226;-64
2021/04/11 02:27:47;;;;;;;5.70;1.90;;;3.50;99.90;;;;;;4364730;32;20521;-61
2021/04/11 02:30:19;;;;;;;4.93;2.70;;;3.40;99.90;;;;;;4361722;32;20269;-64
2021/04/11 02:32:45;;;;;;;3.67;2.30;;;3.50;99.90;;;;;;4371484;32;20160;-62
2021/04/11 02:35:23;;;;;;;2.83;2.30;;;3.50;99.90;;;;;;4361651;32;20161;-62
2021/04/11 02:37:53;;;;;;;3.20;2.00;;;3.50;99.90;;;;;;4366821;32;20203;-62
2021/04/11 02:40:24;;;;;;;2.63;2.20;;;3.50;99.90;;;;;;4368967;32;20650;-62
2021/04/11 02:42:50;;;;;;;2.60;2.00;;;3.50;99.90;;;;;;4360504;32;20175;-62
2021/04/11 02:45:22;;;;;;;4.57;2.20;;;3.60;99.90;;;;;;4361569;32;20177;-62
2021/04/11 02:47:51;;;;;;;3.33;2.20;;;3.50;99.90;;;;;;4368288;32;20240;-62
2021/04/11 02:50:19;;;;;;;3.13;2.47;;;3.50;99.90;;;;;;4365985;32;20246;-64
2021/04/11 02:52:52;;;;;;;3.47;2.60;;;3.50;99.90;;;;;;4360476;32;20215;-61
2021/04/11 02:55:18;;;;;;;5.27;2.53;;;3.50;99.90;;;;;;4360491;32;20532;-62
2021/04/11 02:57:45;;;;;;;4.60;2.80;;;3.50;99.90;;;;;;4363518;32;20181;-64
2021/04/11 03:00:16;;;;;;;3.07;2.30;;;3.50;99.90;;;;;;4366211;32;20191;-61
2021/04/11 03:02:42;;;;;;;3.43;2.30;;;3.60;99.90;;;;;;4363343;32;20172;-63
2021/04/11 03:05:11;;;;;;;4.40;3.17;;;3.50;99.90;;;;;;4364181;32;20520;-62
2021/04/11 03:07:44;;;;;;;4.47;2.40;;;3.60;99.90;;;;;;4365865;32;20220;-62
2021/04/11 03:10:15;;;;;;;3.57;2.40;;;3.50;99.90;;;;;;4374670;32;20605;-62
2021/04/11 03:12:42;;;;;;;4.40;2.50;;;3.50;99.90;;;;;;4374387;32;20616;-62
2021/04/11 03:15:11;;;;;;;2.93;2.23;;;3.50;99.90;;;;;;4371459;32;20541;-63
2021/04/11 03:17:38;;;;;;;4.30;2.43;;;3.60;99.90;;;;;;4362615;32;20216;-62
2021/04/11 03:20:07;;;;;;;4.37;2.30;;;3.60;99.90;;;;;;4361141;33;20204;-63
2021/04/11 03:22:34;;;;;;;2.70;2.10;;;3.60;99.90;;;;;;4360374;32;20219;-63
2021/04/11 03:25:01;;;;;;;3.50;2.70;;;3.50;99.90;;;;;;4365069;32;20172;-62
2021/04/11 03:27:33;;;;;;;2.27;2.07;;;3.50;99.90;;;;;;4363854;32;20176;-63
2021/04/11 03:30:02;;;;;;;4.77;2.50;;;3.50;99.90;;;;;;4370476;32;20566;-62
2021/04/11 03:32:32;;;;;;;3.90;2.43;;;3.50;99.90;;;;;;4372799;32;20227;-62
2021/04/11 03:35:01;;;;;;;3.73;1.90;;;3.50;99.90;;;;;;4371026;32;20299;-63
2021/04/11 03:37:30;;;;;;;5.50;2.03;;;3.60;99.90;;;;;;4369947;32;20165;-62
2021/04/11 03:39:58;;;;;;;6.10;2.10;;;3.50;99.90;;;;;;4369302;32;20663;-63
2021/04/11 03:42:30;;;;;;;3.80;2.23;;;3.50;99.90;;;;;;4363152;32;20184;-63
2021/04/11 03:44:59;;;;;;;3.20;2.63;;;3.50;99.90;;;;;;4366645;32;20540;-63
2021/04/11 03:47:32;;;;;;;3.47;1.90;;;3.50;99.90;;;;;;4377258;32;20172;-63
2021/04/11 03:50:04;;;;;;;2.77;1.80;;;3.50;99.90;;;;;;4374415;32;20543;-63
2021/04/11 03:52:34;;;;;;;2.80;1.80;;;3.50;99.90;;;;;;4364395;32;20206;-63
2021/04/11 03:55:03;;;;;;;6.50;2.13;;;3.50;99.90;;;;;;4367972;32;20287;-63
2021/04/11 03:57:38;;;;;;;3.30;1.40;;;3.50;99.90;;;;;;4368618;32;20207;-63
2021/04/11 04:00:09;;;;;;;5.07;1.87;;;3.50;99.90;;;;;;4362702;32;20176;-62
2021/04/11 04:02:41;;;;;;;1.73;1.50;;;3.50;99.90;;;;;;4362766;32;20161;-63
2021/04/11 04:05:10;;;;;;;3.40;2.03;;;3.50;99.90;;;;;;4367668;32;20609;-62
2021/04/11 04:07:47;;;;;;;3.70;1.87;;;3.60;99.90;;;;;;4377293;32;20616;-63
2021/04/11 04:10:15;;;;;;;4.27;1.90;;;3.60;99.90;;;;;;4366796;32;20172;-63
2021/04/11 04:13:36;;;;;;;3.97;1.90;;;3.60;99.90;;;;;;4362210;32;20171;-63
2021/04/11 04:16:12;;;;;;;4.97;2.00;;;3.50;99.90;;;;;;4306405;33;20236;-62
2021/04/11 04:19:05;;;;;;;3.30;2.43;;;3.60;99.90;;;;;;4292919;33;20193;-61
2021/04/11 04:21:55;;;;;;;2.37;1.80;;;3.60;99.90;;;;;;4298616;33;20217;-62
2021/04/11 04:24:42;;;;;;;3.20;1.97;;;3.60;99.90;;;;;;4289370;33;20556;-62
2021/04/11 04:27:31;;;;;;;8.47;2.23;;;3.60;99.90;;;;;;4296123;33;20188;-63
2021/04/11 04:30:10;;;;;;;4.47;2.47;;;3.60;99.90;;;;;;4291814;33;20784;-62
2021/04/11 04:33:07;;;;;;;4.30;2.33;;;3.70;99.90;;;;;;4294655;33;20201;-62
2021/04/11 04:35:40;;;;;;;3.87;2.50;;;3.70;99.90;;;;;;4292700;33;20178;-61
2021/04/11 04:38:18;;;;;;;4.10;2.67;;;3.70;99.90;;;;;;4292419;33;20248;-66
2021/04/11 04:40:50;;;;;;;7.20;2.50;;;3.70;99.90;;;;;;4295254;33;20249;-64
2021/04/11 04:43:24;;;;;;;5.57;3.00;;;3.70;99.90;;;;;;4296502;33;20236;-63
2021/04/11 04:46:04;;;;;;;8.43;2.57;;;3.70;99.90;;;;;;4300895;33;20289;-64
2021/04/11 04:48:35;;;;;;;4.83;2.73;;;3.70;99.90;;;;;;4299205;33;20209;-64
2021/04/11 04:51:05;;;;;;;6.03;2.40;;;3.70;99.90;;;;;;4313238;33;20585;-64
2021/04/11 04:53:37;;;;;;;7.43;2.60;;;3.70;99.90;;;;;;4361848;32;20643;-64
2021/04/11 04:56:06;;;;;;;9.00;2.43;;;3.80;99.90;;;;;;4367827;32;20197;-65
2021/04/11 04:58:36;;;;;;;6.50;2.33;;;3.80;99.90;;;;;;4377109;32;20262;-65
2021/04/11 05:01:16;;;;;;;7.43;2.90;;;3.80;99.90;;;;;;4384471;32;20161;-64
2021/04/11 05:03:46;;;;;;;3.40;2.43;;;3.80;99.90;;;;;;4371543;32;20216;-63
2021/04/11 05:06:16;;;;;;;8.50;2.80;;;3.80;99.90;;;;;;4368928;32;20172;-64
2021/04/11 05:08:50;;;;;;;5.07;3.30;;;3.80;99.90;;;;;;4366890;32;20160;-62
2021/04/11 05:11:24;;;;;;;7.67;2.97;;;3.80;99.90;;;;;;4367082;32;20248;-64
2021/04/11 05:13:55;;;;;;;8.33;3.60;;;3.80;99.90;;;;;;4370091;32;20153;-63
2021/04/11 05:16:27;;;;;;;5.97;3.37;;;3.80;99.90;;;;;;4370868;32;20203;-62
2021/04/11 05:19:00;;;;;;;8.30;3.50;;;3.80;99.90;;;;;;4371246;32;20263;-65
2021/04/11 05:21:32;;;;;;;7.87;3.20;;;3.90;99.90;;;;;;4367220;32;20145;-64
2021/04/11 05:24:07;;;;;;;6.03;3.37;;;3.90;99.90;;;;;;4361588;33;20179;-65
2021/04/11 05:26:39;;;;;;;8.70;3.50;;;3.90;99.90;;;;;;4364050;32;20164;-64
2021/04/11 05:29:14;;;;;;;8.90;4.43;;;3.90;99.90;;;;;;4375369;32;20211;-64
2021/04/11 05:31:42;;;;;;;5.80;3.47;;;4.00;99.90;;;;;;4363614;32;20218;-63
2021/04/11 05:34:12;;;;;;;11.90;3.63;;;3.90;99.90;;;;;;4366724;32;20240;-65
2021/04/11 05:36:51;;;;;;;9.33;3.90;;;3.90;99.90;;;;;;4368960;32;20164;-62
2021/04/11 05:39:27;;;;;;;4.80;3.03;;;3.90;99.90;;;;;;4368418;32;20239;-62
2021/04/11 05:42:02;;;;;;;8.50;3.33;;;3.90;99.90;;;;;;4365012;32;20615;-64
2021/04/11 05:44:35;;;;;;;7.10;3.00;;;3.80;99.90;;;;;;4364565;32;20601;-64
2021/04/11 05:47:10;;;;;;;4.60;3.37;;;3.90;99.90;;;;;;4366565;32;20588;-65
2021/04/11 05:49:46;;;;;;;5.63;2.97;;;3.90;99.90;;;;;;4372889;32;20214;-63
2021/04/11 05:52:17;;;;;;;4.10;2.60;;;3.90;99.90;;;;;;4364821;32;20155;-61
2021/04/11 05:54:48;;;;;;;5.27;3.17;;;3.90;99.90;;;;;;4375405;32;20176;-62
2021/04/11 05:57:20;;;;;;;6.10;3.03;;;3.90;99.90;;;;;;4369358;32;20187;-63
2021/04/11 05:59:49;;;;;;;5.27;3.13;;;3.90;99.90;;;;;;4362939;32;20254;-63
2021/04/11 06:02:26;;;;;;;5.00;3.00;;;4.00;99.90;;;;;;4372895;32;20192;-62
2021/04/11 06:05:00;;;;;;;10.00;3.27;;;4.00;99.90;;;;;;4373638;32;20679;-63
2021/04/11 06:07:31;;;;;;;4.47;3.00;;;4.00;99.90;;;;;;4371735;32;20238;-63
2021/04/11 06:10:05;;;;;;;4.77;2.67;;;4.00;99.90;;;;;;4368405;32;20179;-63
2021/04/11 06:12:36;;;;;;;5.40;2.60;;;4.10;99.90;;;;;;4373479;32;20209;-63
2021/04/11 06:15:09;;;;;;;7.57;2.97;;;4.10;99.90;;;;;;4375448;32;20179;-63
2021/04/11 06:17:36;;;;;;;9.30;3.20;;;4.10;99.90;;;;;;4364811;32;20470;-64
2021/04/11 06:20:06;;;;;;;7.53;2.80;;;4.20;99.90;;;;;;4372551;32;20258;-64
2021/04/11 06:22:42;;;;;;;9.33;2.57;;;4.10;99.90;;;;;;4376136;32;20505;-63
2021/04/11 06:25:14;;;;;;;6.43;2.90;;;4.20;99.90;;;;;;4360876;33;20180;-62
2021/04/11 06:27:50;;;;;;;8.77;3.43;;;4.20;99.90;;;;;;4364136;32;20153;-63
2021/04/11 06:30:20;;;;;;;7.10;3.03;;;4.20;99.90;;;;;;4368260;32;20187;-61
2021/04/11 06:32:54;;;;;;;8.93;3.70;;;4.20;99.90;;;;;;4368049;32;20179;-62
2021/04/11 06:35:26;;;;;;;5.20;3.20;;;4.10;99.90;;;;;;4366365;32;20193;-63
2021/04/11 06:37:58;;;;;;;8.00;2.20;;;4.10;99.90;;;;;;4366502;32;20552;-61
2021/04/11 06:40:46;;;;;;;6.00;2.87;;;4.10;99.90;;;;;;4363796;32;20196;-62
2021/04/11 06:43:40;;;;;;;5.67;2.77;;;4.00;99.90;;;;;;4368069;32;20187;-61
2021/04/11 06:46:19;;;;;;;8.13;2.47;;;4.00;99.90;;;;;;4366308;32;20180;-61
2021/04/11 06:49:01;;;;;;;5.40;2.20;;;4.10;99.90;;;;;;4368077;32;20227;-62
2021/04/11 06:51:59;;;;;;;8.47;2.77;;;4.20;99.90;;;;;;4367069;32;20204;-61
2021/04/11 06:54:58;;;;;;;4.87;2.27;;;4.20;99.90;;;;;;4366812;32;20236;-61
2021/04/11 06:57:31;;;;;;;6.20;2.27;;;4.10;99.90;;;;;;4366756;32;20176;-61
2021/04/11 07:00:10;;;;;;;9.50;2.30;;;4.20;99.90;;;;;;4368455;32;20558;-64
2021/04/11 07:03:18;;;;;;;5.60;2.53;;;4.20;99.90;;;;;;4367745;32;20529;-62
2021/04/11 07:05:59;;;;;;;6.90;2.07;;;4.20;99.90;;;;;;4365196;32;20604;-62
2021/04/11 07:08:53;;;;;;;7.57;2.10;;;4.20;99.90;;;;;;4365246;32;20184;-64
2021/04/11 07:12:07;;;;;;;8.67;2.20;;;4.20;99.90;;;;;;4329415;32;1182647;-63
2021/04/11 07:15:04;;;;;;;6.90;1.87;;;4.20;99.90;;;;;;4365424;32;20176;-61
2021/04/11 07:18:01;;;;;;;4.33;2.00;;;4.30;99.90;;;;;;4362931;32;20263;-63
2021/04/11 07:21:03;;;;;;;5.97;2.27;;;4.40;99.90;;;;;;4308524;33;20161;-63
2021/04/11 07:23:56;;;;;;;6.27;1.80;;;4.40;99.90;;;;;;4253983;33;20494;-63
2021/04/11 07:26:42;;;;;;;9.70;1.80;;;4.40;99.90;;;;;;4254500;33;20694;-63
2021/04/11 07:29:29;;;;;;;4.50;1.87;;;4.40;99.90;;;;;;4249927;33;20227;-63
2021/04/11 07:32:18;;;;;;;7.83;2.00;;;4.50;99.90;;;;;;4254666;33;20500;-63
2021/04/11 07:34:59;;;;;;;5.33;2.10;;;4.60;99.90;;;;;;4225280;34;20257;-63
2021/04/11 07:37:42;;;;;;;5.60;1.90;;;4.60;99.90;;;;;;4227660;34;20175;-62
2021/04/11 07:40:20;;;;;;;10.17;1.97;;;4.60;99.90;;;;;;4224811;34;20247;-62
2021/04/11 07:43:22;;;;;;;6.73;2.20;;;4.60;99.90;;;;;;4228703;33;20350;-64
2021/04/11 07:46:24;;;;;;;6.60;1.90;;;4.70;99.90;;;;;;4225945;34;20544;-62
2021/04/11 07:49:10;;;;;;;10.03;1.73;;;4.70;99.90;;;;;;4212336;34;20222;-64
2021/04/11 07:51:57;;;;;;;5.83;1.80;;;4.70;99.90;;;;;;4213277;34;20243;-63
2021/04/11 07:54:46;;;;;;;5.83;1.87;;;4.70;99.90;;;;;;4214493;34;20236;-63
2021/04/11 07:57:32;;;;;;;3.53;1.77;;;4.70;99.90;;;;;;4225826;33;20190;-64
2021/04/11 08:00:13;;;;;;;7.50;1.70;;;4.80;99.90;;;;;;4288894;33;20168;-62
2021/04/11 08:03:17;;;;;;;7.60;1.63;;;5.00;99.90;;;;;;4305113;33;20269;-63
2021/04/11 08:06:15;;;;;;;7.90;1.70;;;4.90;99.90;;;;;;4306023;33;20155;-62
2021/04/11 08:09:12;;;;;;;6.00;1.70;;;4.90;99.90;;;;;;4308564;33;20386;-63
2021/04/11 08:12:10;;;;;;;5.77;1.47;;;5.00;99.90;;;;;;4313318;33;20165;-62
2021/04/11 08:14:51;;;;;;;7.17;1.73;;;4.90;99.90;;;;;;4280379;33;20162;-63
2021/04/11 08:17:36;;;;;;;13.37;3.20;;;5.10;99.90;;;;;;4284961;33;20553;-60
2021/04/11 08:20:17;;;;;;;5.37;1.73;;;5.20;99.90;;;;;;4287173;33;20718;-63
2021/04/11 08:23:08;;;;;;;5.07;1.40;;;5.40;99.90;;;;;;4288160;33;20155;-63
2021/04/11 08:25:39;;;;;;;6.10;1.37;;;5.30;99.90;;;;;;4300763;33;20335;-61
2021/04/11 08:28:48;;;;;;;7.70;1.60;;;5.20;99.90;;;;;;4315899;33;20200;-62
2021/04/11 08:31:34;;;;;;;9.10;1.63;;;5.40;99.90;;;;;;4311292;33;20220;-63
2021/04/11 08:34:32;;;;;;;7.23;1.27;;;5.60;99.90;;;;;;4312388;33;20195;-62
2021/04/11 08:37:18;;;;;;;6.13;1.23;;;5.60;99.90;;;;;;4312806;33;20228;-63
2021/04/11 08:39:52;;;;;;;4.80;1.40;;;5.50;99.90;;;;;;4314539;33;20278;-63
2021/04/11 08:42:28;;;;;;;4.03;1.60;;;5.40;99.90;;;;;;4313156;33;20161;-64
2021/04/11 08:45:09;;;;;;;4.17;1.37;;;5.60;99.90;;;;;;4311398;33;20145;-63
2021/04/11 08:47:56;;;;;;;3.97;1.33;;;5.50;99.90;;;;;;4313048;33;20158;-63
2021/04/11 08:50:31;;;;;;;4.50;1.30;;;5.90;99.90;;;;;;4321860;32;20636;-63
2021/04/11 08:53:09;;;;;;;3.87;1.27;;;5.70;99.90;;;;;;4358179;32;20218;-63
2021/04/11 08:55:42;;;;;;;3.00;1.17;;;5.40;99.90;;;;;;4359185;32;20274;-62
2021/04/11 08:58:27;;;;;;;3.93;1.33;;;5.40;99.90;;;;;;4362661;32;20526;-63
2021/04/11 09:01:06;;;;;;;6.30;1.27;;;5.30;99.90;;;;;;4360131;32;20176;-63
2021/04/11 09:03:57;;;;;;;3.97;1.50;;;5.20;99.90;;;;;;4359724;32;20169;-64
2021/04/11 09:06:40;;;;;;;4.13;1.50;;;5.30;99.90;;;;;;4359842;33;20149;-63
2021/04/11 09:09:28;;;;;;;2.93;1.23;;;5.40;99.90;;;;;;4363371;32;20489;-64
2021/04/11 09:12:07;;;;;;;3.87;1.00;;;5.40;99.90;;;;;;4365430;32;20239;-63
2021/04/11 09:14:44;;;;;;;6.23;1.53;;;5.40;99.90;;;;;;4363241;32;20280;-63
2021/04/11 09:17:45;;;;;;;3.80;1.60;;;5.60;99.90;;;;;;4366903;32;20260;-63
2021/04/11 09:20:18;;;;;;;4.37;1.30;;;5.70;99.90;;;;;;4321759;33;20255;-63
2021/04/11 09:23:06;;;;;;;5.23;1.50;;;5.80;99.90;;;;;;4318839;33;20178;-62
2021/04/11 09:25:37;;;;;;;4.27;1.27;;;6.30;99.90;;;;;;4321804;33;20171;-62
2021/04/11 09:28:48;;;;;;;3.47;1.30;;;6.00;98.70;;;;;;4321400;33;20157;-61
2021/04/11 09:31:48;;;;;;;5.07;2.00;;;5.90;99.70;;;;;;4320622;33;20715;-62
2021/04/11 09:34:46;;;;;;;4.77;1.27;;;5.90;99.70;;;;;;4322435;33;20264;-63
2021/04/11 09:37:55;;;;;;;4.97;1.40;;;6.40;99.90;;;;;;4314470;33;20261;-62
2021/04/11 09:40:39;;;;;;;7.67;1.40;;;7.00;99.30;;;;;;4258465;33;20708;-63
2021/04/11 09:43:22;;;;;;;3.77;1.53;;;7.20;97.60;;;;;;4259954;33;20244;-63
2021/04/11 09:46:23;;;;;;;4.27;1.30;;;6.90;97.60;;;;;;4259296;33;20660;-63
2021/04/11 09:49:18;;;;;;;9.33;1.60;;;7.00;97.30;;;;;;4258773;33;20274;-63
2021/04/11 09:52:02;;;;;;;5.10;1.10;;;7.50;96.50;;;;;;4261743;33;20261;-63
2021/04/11 09:54:40;;;;;;;5.27;1.13;;;7.50;94.40;;;;;;4259180;33;20230;-63
2021/04/11 09:57:30;;;;;;;2.67;0.90;;;8.10;94.90;;;;;;4300597;33;20685;-62
2021/04/11 10:00:22;;;;;;;3.53;1.10;;;7.70;92.60;;;;;;4303567;33;20664;-64
2021/04/11 10:03:11;;;;;;;3.00;0.97;;;7.30;94.00;;;;;;4302223;33;20249;-63
2021/04/11 10:05:53;;;;;;;5.50;1.00;;;6.90;93.90;;;;;;4304293;33;20161;-64
2021/04/11 10:08:38;;;;;;;3.57;1.60;;;6.40;94.60;;;;;;4311795;33;20147;-62
2021/04/11 10:11:21;;;;;;;3.97;1.07;;;6.80;95.60;;;;;;4307629;33;20153;-62
2021/04/11 10:14:08;;;;;;;2.50;1.23;;;7.30;94.50;;;;;;4304260;33;20616;-63
2021/04/11 10:16:45;;;;;;;2.30;0.80;;;7.90;94.10;;;;;;4310329;32;20351;-63
2021/04/11 10:19:42;;;;;;;4.37;1.10;;;8.60;92.20;;;;;;4363212;32;20163;-62
2021/04/11 10:22:34;;;;;;;3.13;0.80;;;9.00;91.20;;;;;;4362659;32;20175;-62
2021/04/11 10:25:07;;;;;;;5.50;1.10;;;7.30;91.40;;;;;;4365537;32;20172;-63
2021/04/11 10:27:44;;;;;;;4.47;1.17;;;7.40;93.40;;;;;;4366028;32;20512;-63
2021/04/11 10:30:12;;;;;;;2.13;0.83;;;7.60;92.40;;;;;;4369877;32;20285;-63
2021/04/11 10:32:48;;;;;;;4.63;1.40;;;8.00;92.30;;;;;;4361354;32;20195;-63
2021/04/11 10:35:21;;;;;;;2.67;0.90;;;8.10;91.90;;;;;;4365343;32;20140;-63
2021/04/11 10:37:54;;;;;;;3.47;1.10;;;8.80;91.60;;;;;;4366296;32;20153;-63
2021/04/11 10:40:42;;;;;;;4.43;1.23;;;9.40;90.80;;;;;;4360575;32;20196;-62
2021/04/11 10:43:25;;;;;;;3.03;1.40;;;8.90;90.00;;;;;;4363672;32;20179;-62
2021/04/11 10:45:57;;;;;;;3.93;1.30;;;8.50;90.20;;;;;;4365681;32;20199;-62
2021/04/11 10:49:00;;;;;;;5.93;1.20;;;8.90;90.40;;;;;;4364043;32;20358;-63
2021/04/11 10:51:58;;;;;;;6.13;1.23;;;9.70;90.90;;;;;;4307550;33;20177;-64
2021/04/11 10:54:45;;;;;;;6.27;0.87;;;8.30;90.40;;;;;;4303645;33;20294;-62
2021/04/11 10:57:35;;;;;;;6.10;0.80;;;7.90;93.00;;;;;;4307087;33;20229;-63
2021/04/11 11:00:14;;;;;;;2.83;1.30;;;7.60;93.40;;;;;;4302775;33;20299;-62
2021/04/11 11:03:29;;;;;;;3.83;1.53;;;7.50;94.20;;;;;;4312252;33;20563;-62
2021/04/11 11:06:22;;;;;;;3.23;0.90;;;8.00;92.40;;;;;;4263109;33;20186;-62
2021/04/11 11:09:20;;;;;;;1.67;0.97;;;8.30;91.40;;;;;;4263320;33;20281;-63
2021/04/11 11:12:17;;;;;;;5.20;1.10;;;8.70;90.20;;;;;;4269478;33;20150;-63
2021/04/11 11:15:00;;;;;;;2.57;0.70;;;8.80;90.40;;;;;;4263332;33;21852;-64
2021/04/11 11:17:41;;;;;;;5.43;1.07;;;8.90;89.20;;;;;;4265759;33;20162;-64
2021/04/11 11:20:20;;;;;;;6.73;1.20;;;8.50;89.50;;;;;;4264748;33;20222;-64
2021/04/11 11:23:18;;;;;;;4.20;1.10;;;8.00;90.40;;;;;;4269012;33;20274;-65
2021/04/11 11:26:04;;;;;;;5.40;0.67;;;8.60;92.00;;;;;;4265891;33;20316;-64
2021/04/11 11:29:09;;;;;;;1.57;0.77;;;8.00;90.00;;;;;;4296962;33;20293;-63
2021/04/11 11:31:50;;;;;;;2.53;0.70;;;7.70;88.00;;;;;;4322826;33;20169;-63
2021/04/11 11:34:38;;;;;;;4.40;0.80;;;7.80;89.40;;;;;;4325710;33;20153;-64
2021/04/11 11:37:18;;;;;;;1.57;0.60;;;7.80;87.70;;;;;;4320203;33;20212;-63
2021/04/11 11:39:49;;;;;;;4.47;1.00;;;8.00;86.60;;;;;;4321020;33;20157;-63
2021/04/11 11:42:28;;;;;;;4.33;1.70;;;8.80;88.20;;;;;;4348231;32;20216;-63
2021/04/11 11:45:03;;;;;;;2.80;0.70;;;8.80;84.90;;;;;;4364391;32;20663;-65
2021/04/11 11:47:36;;;;;;;2.70;1.13;;;9.00;85.50;;;;;;4363819;32;20153;-61
2021/04/11 11:50:12;;;;;;;4.97;0.87;;;9.00;83.90;;;;;;4367589;32;20226;-62
2021/04/11 11:52:45;;;;;;;1.67;0.77;;;8.90;86.30;;;;;;4369404;32;20554;-62
2021/04/11 11:55:24;;;;;;;1.50;0.73;;;9.20;85.20;;;;;;4367626;32;20272;-66
2021/04/11 11:57:57;;;;;;;1.97;0.70;;;9.60;83.20;;;;;;4368038;32;20322;-63
2021/04/11 12:00:27;;;;;;;6.53;1.10;;;9.60;83.70;;;;;;4367242;32;20140;-63
2021/04/11 12:03:11;;;;;;;3.63;0.97;;;10.10;83.00;;;;;;4369302;32;20180;-63
2021/04/11 12:05:48;;;;;;;4.90;0.90;;;10.50;82.30;;;;;;4367221;32;20203;-65
2021/04/11 12:08:27;;;;;;;3.60;1.13;;;9.60;80.80;;;;;;4368633;32;20521;-64
2021/04/11 12:11:00;;;;;;;5.20;0.93;;;9.40;80.60;;;;;;4367251;32;20156;-64
2021/04/11 12:13:37;;;;;;;1.73;0.87;;;9.40;83.90;;;;;;4367947;32;20437;-64
2021/04/11 12:16:11;;;;;;;3.37;0.90;;;9.80;81.60;;;;;;4363060;32;20152;-64
2021/04/11 12:18:51;;;;;;;3.13;1.03;;;9.70;79.30;;;;;;4372470;32;20157;-64
2021/04/11 12:21:24;;;;;;;2.60;1.07;;;9.70;81.30;;;;;;4377172;32;20223;-64
2021/04/11 12:23:57;;;;;;;1.40;0.90;;;10.00;81.40;;;;;;4368298;32;20184;-65
2021/04/11 12:26:26;;;;;;;3.40;0.90;;;10.60;78.80;;;;;;4371542;32;20588;-66
2021/04/11 12:28:54;;;;;;;2.47;0.90;;;10.60;78.20;;;;;;4370460;32;20161;-66
2021/04/11 12:31:34;;;;;;;2.80;0.90;;;9.70;80.80;;;;;;4368220;32;20207;-64
2021/04/11 12:34:07;;;;;;;3.23;0.80;;;8.90;79.60;;;;;;4368937;32;20306;-63
2021/04/11 12:36:45;;;;;;;1.57;0.80;;;8.80;83.10;;;;;;4366513;32;20153;-64
2021/04/11 12:39:21;;;;;;;1.50;0.53;;;9.10;84.50;;;;;;4369196;32;20236;-64
2021/04/11 12:42:00;;;;;;;1.73;1.00;;;8.90;82.60;;;;;;4370277;32;20133;-64
2021/04/11 12:44:33;;;;;;;2.83;0.87;;;9.00;80.10;;;;;;4370063;32;20136;-64
2021/04/11 12:47:09;;;;;;;1.13;0.73;;;8.60;80.10;;;;;;4359975;32;20208;-64
2021/04/11 12:49:47;;;;;;;2.90;0.80;;;8.30;82.60;;;;;;4363217;32;20710;-64
2021/04/11 12:52:23;;;;;;;2.60;1.00;;;8.50;81.80;;;;;;4364783;32;20164;-64
2021/04/11 12:54:54;;;;;;;3.00;0.83;;;8.70;80.50;;;;;;4364849;32;20576;-64
2021/04/11 12:57:27;;;;;;;2.43;0.80;;;9.00;80.50;;;;;;4364077;32;20187;-66
2021/04/11 13:00:00;;;;;;;3.37;0.90;;;9.20;80.10;;;;;;4364258;32;20145;-64
2021/04/11 13:02:38;;;;;;;1.57;0.70;;;9.00;78.60;;;;;;4362182;32;20224;-63
2021/04/11 13:05:09;;;;;;;2.83;1.10;;;8.90;79.80;;;;;;4365901;32;20160;-64
2021/04/11 13:07:44;;;;;;;1.63;0.90;;;8.90;80.00;;;;;;4365700;32;20156;-63
2021/04/11 13:10:24;;;;;;;2.83;0.83;;;9.20;81.00;;;;;;4363965;32;20168;-64
2021/04/11 13:12:58;;;;;;;1.10;0.90;;;9.40;78.20;;;;;;4364217;32;20658;-63
2021/04/11 13:15:29;;;;;;;2.43;1.20;;;9.50;77.60;;;;;;4360097;32;20269;-63
2021/04/11 13:18:07;;;;;;;3.37;0.77;;;9.80;75.50;;;;;;4362492;32;20220;-64
2021/04/11 13:20:40;;;;;;;2.20;0.63;;;9.90;76.80;;;;;;4364687;32;20174;-63
2021/04/11 13:23:12;;;;;;;1.23;0.60;;;9.70;74.20;;;;;;4363347;32;20160;-67
2021/04/11 13:25:44;;;;;;;3.37;1.07;;;9.70;74.50;;;;;;4361063;32;20153;-64
2021/04/11 13:28:21;;;;;;;1.50;0.80;;;9.40;73.90;;;;;;4365475;32;20231;-66
2021/04/11 13:30:56;;;;;;;2.00;0.60;;;9.30;75.30;;;;;;4364606;32;21678;-62
2021/04/11 13:33:27;;;;;;;1.50;0.70;;;9.70;76.00;;;;;;4363045;32;20506;-64
2021/04/11 13:35:57;;;;;;;4.70;1.23;;;9.90;76.10;;;;;;4364133;32;20239;-66
2021/04/11 13:38:30;;;;;;;2.50;0.87;;;9.70;77.50;;;;;;4364052;32;20152;-64
2021/04/11 13:41:16;;;;;;;3.13;1.03;;;9.00;76.90;;;;;;4362843;32;20259;-65
2021/04/11 13:43:54;;;;;;;2.30;1.10;;;8.80;79.60;;;;;;4364336;32;20247;-65
2021/04/11 13:46:40;;;;;;;6.53;1.17;;;8.60;81.50;;;;;;4364208;32;20172;-65
2021/04/11 13:49:15;;;;;;;1.37;0.97;;;8.80;80.50;;;;;;4363973;32;20153;-64
2021/04/11 13:52:00;;;;;;;2.77;0.83;;;8.80;81.30;;;;;;4361298;32;20164;-65